CSCL Long Beach — VRCZ7 — position and weather

sailwx.info

Track history (hours):
 
Tides and Currents Weather Stations Pressure Air Temp Water Temp Dewpoint Dewpoint Depression Visibility Wind Speed Wind Dir Waves Ship Positions

CSCL Long Beach

Last reported at 2014-Nov-13 20:26 UTC. Time now 2014-Nov-27 04:02 UTC.
Position N 01°11' E 103°48'.
Warning: this ship's position is 13 days out of date.

Length 336.7 m; beam 45.6 m; draft 15 m.

Type: Cargo ship. MMSI: 477883900.

Date/timePositionNaut miles runAvg speedWind from/ knotsBaromVisibWave heightAir tempDewpointWater temp
2014-Nov-13 20:26N 01°11' E 103°48'  
2014-Nov-10 18:32N 22°34' E 114°16'0 0.0
2014-Nov-10 17:17N 22°34' E 114°16'0 0.0
2014-Nov-10 10:17N 22°34' E 114°16'0 0.0
2014-Nov-10 09:29N 22°34' E 114°16'0 0.0
2014-Nov-10 06:23N 22°34' E 114°16'0 0.0
2014-Nov-10 05:06N 22°34' E 114°16'0 0.0
2014-Nov-10 03:32N 22°34' E 114°16'0 0.2
2014-Nov-10 02:33N 22°34' E 114°16'7 6.5
2014-Nov-10 01:28N 22°32' E 114°24'27217.0
2014-Nov-09 09:30N 24°17' E 118°57'36018.0
2014-Nov-08 13:33N 29°22' E 122°31'1717.4
2014-Nov-08 12:33N 29°39' E 122°26'1313.0
2014-Nov-08 11:33N 29°48' E 122°15'1313.1
2014-Nov-08 10:33N 29°55' E 122°03'6 5.2
2014-Nov-08 09:24N 29°56' E 121°56'0 0.0
2014-Nov-08 08:18N 29°56' E 121°56'0 0.0
2014-Nov-08 07:30N 29°56' E 121°56'0 0.0
2014-Nov-08 05:30N 29°56' E 121°56'0 0.0
2014-Nov-08 03:30N 29°56' E 121°56'0 0.0
2014-Nov-08 02:12N 29°56' E 121°56'0 0.0
2014-Nov-08 01:30N 29°56' E 121°56'0 0.0
2014-Nov-08 00:30N 29°56' E 121°56'0 0.0
2014-Nov-07 22:30N 29°56' E 121°56'0 0.0
2014-Nov-07 21:12N 29°56' E 121°56'0 0.0
2014-Nov-07 19:24N 29°56' E 121°56'0 0.0
2014-Nov-07 18:12N 29°56' E 121°56'0 0.0
2014-Nov-07 16:24N 29°56' E 121°56'0 0.0
2014-Nov-07 14:30N 29°56' E 121°56'0 0.0
2014-Nov-07 13:30N 29°56' E 121°56'0 0.0
2014-Nov-07 12:24N 29°56' E 121°56'0 0.0
2014-Nov-07 11:30N 29°56' E 121°56'0 0.0
2014-Nov-07 09:33N 29°56' E 121°56'8 8.2
2014-Nov-07 08:33N 29°56' E 122°05'1110.9
2014-Nov-07 07:32N 29°48' E 122°15'10 9.8
2014-Nov-07 06:33N 29°42' E 122°24'6 0.8
2014-Nov-06 23:05N 29°37' E 122°26'0 0.1
2014-Nov-06 21:23N 29°37' E 122°26'0 0.1
2014-Nov-06 19:23N 29°37' E 122°26'0 0.1
2014-Nov-06 18:29N 29°37' E 122°26'7 7.1
2014-Nov-06 17:33N 29°40' E 122°33'62 1.9
2014-Nov-05 09:33N 30°36' E 122°04'7 7.6
2014-Nov-05 08:33N 30°33' E 122°12'8 7.7
2014-Nov-05 07:30N 30°33' E 122°22'8 8.4
2014-Nov-05 06:32N 30°32' E 122°31'  
Track history (hours):
 
Tides and Currents Weather Stations Pressure Air Temp Water Temp Dewpoint Dewpoint Depression Visibility Wind Speed Wind Dir Waves Ship Positions

CSCL Long Beach

Last reported at 2014-Nov-13 20:26 UTC. Time now 2014-Nov-27 04:02 UTC.
Position N 01°11' E 103°48'.
Warning: this ship's position is 13 days out of date.

Length 336.7 m; beam 45.6 m; draft 15 m.

Type: Cargo ship. MMSI: 477883900.

Date/timePositionNaut miles runAvg speedWind from/ knotsBaromVisibWave heightAir tempDewpointWater temp
2014-Nov-13 20:26N 01°11' E 103°48'  
2014-Nov-10 18:32N 22°34' E 114°16'0 0.0
2014-Nov-10 17:17N 22°34' E 114°16'0 0.0
2014-Nov-10 10:17N 22°34' E 114°16'0 0.0
2014-Nov-10 09:29N 22°34' E 114°16'0 0.0
2014-Nov-10 06:23N 22°34' E 114°16'0 0.0
2014-Nov-10 05:06N 22°34' E 114°16'0 0.0
2014-Nov-10 03:32N 22°34' E 114°16'0 0.2
2014-Nov-10 02:33N 22°34' E 114°16'7 6.5
2014-Nov-10 01:28N 22°32' E 114°24'27217.0
2014-Nov-09 09:30N 24°17' E 118°57'36018.0
2014-Nov-08 13:33N 29°22' E 122°31'1717.4
2014-Nov-08 12:33N 29°39' E 122°26'1313.0
2014-Nov-08 11:33N 29°48' E 122°15'1313.1
2014-Nov-08 10:33N 29°55' E 122°03'6 5.2
2014-Nov-08 09:24N 29°56' E 121°56'0 0.0
2014-Nov-08 08:18N 29°56' E 121°56'0 0.0
2014-Nov-08 07:30N 29°56' E 121°56'0 0.0
2014-Nov-08 05:30N 29°56' E 121°56'0 0.0
2014-Nov-08 03:30N 29°56' E 121°56'0 0.0
2014-Nov-08 02:12N 29°56' E 121°56'0 0.0
2014-Nov-08 01:30N 29°56' E 121°56'0 0.0
2014-Nov-08 00:30N 29°56' E 121°56'0 0.0
2014-Nov-07 22:30N 29°56' E 121°56'0 0.0
2014-Nov-07 21:12N 29°56' E 121°56'0 0.0
2014-Nov-07 19:24N 29°56' E 121°56'0 0.0
2014-Nov-07 18:12N 29°56' E 121°56'0 0.0
2014-Nov-07 16:24N 29°56' E 121°56'0 0.0
2014-Nov-07 14:30N 29°56' E 121°56'0 0.0
2014-Nov-07 13:30N 29°56' E 121°56'0 0.0
2014-Nov-07 12:24N 29°56' E 121°56'0 0.0
2014-Nov-07 11:30N 29°56' E 121°56'0 0.0
2014-Nov-07 09:33N 29°56' E 121°56'8 8.2
2014-Nov-07 08:33N 29°56' E 122°05'1110.9
2014-Nov-07 07:32N 29°48' E 122°15'10 9.8
2014-Nov-07 06:33N 29°42' E 122°24'6 0.8
2014-Nov-06 23:05N 29°37' E 122°26'0 0.1
2014-Nov-06 21:23N 29°37' E 122°26'0 0.1
2014-Nov-06 19:23N 29°37' E 122°26'0 0.1
2014-Nov-06 18:29N 29°37' E 122°26'7 7.1
2014-Nov-06 17:33N 29°40' E 122°33'62 1.9
2014-Nov-05 09:33N 30°36' E 122°04'7 7.6
2014-Nov-05 08:33N 30°33' E 122°12'8 7.7
2014-Nov-05 07:30N 30°33' E 122°22'8 8.4
2014-Nov-05 06:32N 30°32' E 122°31'  

Dump ship's entire track history